createdAt,value
2018-09-10T00:01:32.574Z,99.90
2018-09-10T00:04:01.458Z,99.90
2018-09-10T00:06:30.416Z,99.90
2018-09-10T00:08:59.025Z,99.90
2018-09-10T00:11:27.598Z,99.90
2018-09-10T00:13:56.175Z,99.90
2018-09-10T00:16:24.721Z,99.90
2018-09-10T00:18:53.336Z,99.90
2018-09-10T00:21:21.929Z,99.90
2018-09-10T00:23:50.490Z,99.90
2018-09-10T00:26:19.496Z,99.90
2018-09-10T00:28:48.059Z,99.90
2018-09-10T00:31:16.650Z,99.90
2018-09-10T00:33:45.562Z,99.90
2018-09-10T00:39:00.751Z,99.90
2018-09-10T00:41:29.853Z,99.90
2018-09-10T00:43:59.563Z,99.90
2018-09-10T00:46:29.143Z,99.90
2018-09-10T00:48:58.598Z,99.90
2018-09-10T00:51:27.130Z,99.90
2018-09-10T00:53:55.970Z,99.90
2018-09-10T00:56:26.191Z,99.90
2018-09-10T00:58:55.070Z,99.90
2018-09-10T01:01:24.596Z,99.90
2018-09-10T01:03:53.177Z,99.90
2018-09-10T01:06:21.700Z,99.90
2018-09-10T01:08:50.274Z,99.90
2018-09-10T01:11:20.837Z,99.90
2018-09-10T01:13:50.377Z,99.90
2018-09-10T01:16:18.984Z,99.90
2018-09-10T01:18:47.564Z,99.90
2018-09-10T01:21:16.755Z,99.90
2018-09-10T01:23:46.283Z,99.90
2018-09-10T01:26:14.843Z,99.90
2018-09-10T01:28:43.376Z,99.90
2018-09-10T01:31:12.202Z,99.90
2018-09-10T01:33:45.865Z,99.90
2018-09-10T01:36:14.491Z,99.90
2018-09-10T01:38:43.067Z,99.90
2018-09-10T01:41:12.031Z,99.90
2018-09-10T01:43:40.595Z,99.90
2018-09-10T01:46:10.344Z,99.90
2018-09-10T01:48:38.942Z,99.90
2018-09-10T01:51:07.606Z,99.90
2018-09-10T01:53:36.211Z,99.90
2018-09-10T01:56:05.190Z,99.90
2018-09-10T01:58:34.108Z,99.90
2018-09-10T02:01:02.638Z,99.90
2018-09-10T02:03:31.237Z,99.90
2018-09-10T02:05:59.768Z,99.90
2018-09-10T02:08:28.374Z,99.90
2018-09-10T02:10:58.327Z,99.90
2018-09-10T02:13:26.886Z,99.90
2018-09-10T02:15:55.435Z,99.90
2018-09-10T02:18:24.012Z,99.90
2018-09-10T02:20:52.600Z,99.90
2018-09-10T02:23:21.784Z,99.90
2018-09-10T02:25:50.458Z,99.90
2018-09-10T02:28:18.999Z,99.90
2018-09-10T02:30:48.418Z,99.90
2018-09-10T02:33:17.225Z,99.90
2018-09-10T02:35:45.822Z,99.90
2018-09-10T02:38:14.463Z,99.90
2018-09-10T02:40:43.959Z,99.90
2018-09-10T02:43:12.538Z,99.90
2018-09-10T02:45:41.501Z,99.90
2018-09-10T02:48:10.121Z,99.90
2018-09-10T02:50:38.682Z,99.90
2018-09-10T02:53:07.211Z,99.90
2018-09-10T02:55:35.805Z,99.90
2018-09-10T02:58:04.781Z,99.90
2018-09-10T03:00:34.635Z,99.90
2018-09-10T03:03:03.847Z,99.90
2018-09-10T03:05:32.392Z,99.90
2018-09-10T03:08:01.660Z,99.90
2018-09-10T03:10:31.132Z,99.90
2018-09-10T03:12:59.651Z,99.90
2018-09-10T03:15:28.810Z,99.90
2018-09-10T03:17:57.413Z,99.90
2018-09-10T03:20:25.933Z,99.90
2018-09-10T03:22:54.965Z,99.90
2018-09-10T03:25:23.541Z,99.90
2018-09-10T03:27:52.095Z,99.90
2018-09-10T03:30:21.951Z,99.90
2018-09-10T03:32:50.474Z,99.90
2018-09-10T03:35:19.075Z,99.90
2018-09-10T03:37:47.597Z,99.90
2018-09-10T03:40:16.278Z,99.90
2018-09-10T03:42:45.680Z,99.90
2018-09-10T03:45:15.680Z,99.90
2018-09-10T03:47:44.215Z,99.90
2018-09-10T03:50:12.773Z,99.90
2018-09-10T03:52:41.398Z,99.90
2018-09-10T03:55:09.959Z,99.90
2018-09-10T03:57:38.518Z,99.90
2018-09-10T04:00:11.279Z,99.90
2018-09-10T04:02:39.858Z,99.90
2018-09-10T04:05:09.322Z,99.90
2018-09-10T04:07:38.006Z,99.90
2018-09-10T04:10:06.961Z,99.90
2018-09-10T04:12:35.640Z,99.90
2018-09-10T04:15:05.125Z,99.90
2018-09-10T04:17:33.988Z,99.90
2018-09-10T04:20:11.678Z,99.90
2018-09-10T04:22:42.225Z,99.90
2018-09-10T04:25:12.515Z,99.90
2018-09-10T04:27:41.082Z,99.90
2018-09-10T04:30:17.520Z,99.90
2018-09-10T04:32:46.962Z,99.90
2018-09-10T04:35:16.762Z,99.90
2018-09-10T04:37:45.350Z,99.90
2018-09-10T04:40:14.214Z,99.90
2018-09-10T04:42:42.849Z,99.90
2018-09-10T04:45:13.540Z,99.90
2018-09-10T04:47:42.388Z,99.90
2018-09-10T04:50:10.972Z,99.90
2018-09-10T04:52:39.479Z,99.90
2018-09-10T04:55:08.030Z,99.90
2018-09-10T04:57:36.626Z,99.90
2018-09-10T05:00:05.709Z,99.90
2018-09-10T05:02:34.293Z,99.90
2018-09-10T05:05:02.864Z,99.90
2018-09-10T05:07:31.762Z,99.90
2018-09-10T05:10:00.353Z,99.90
2018-09-10T05:12:30.083Z,99.90
2018-09-10T05:14:59.276Z,99.90
2018-09-10T05:17:29.074Z,99.90
2018-09-10T05:19:59.269Z,99.90
2018-09-10T05:22:27.834Z,99.90
2018-09-10T05:24:57.097Z,99.90
2018-09-10T05:27:26.301Z,99.90
2018-09-10T05:29:54.866Z,99.90
2018-09-10T05:32:23.448Z,99.90
2018-09-10T05:34:51.979Z,99.90
2018-09-10T05:37:20.590Z,99.90
2018-09-10T05:39:49.142Z,99.90
2018-09-10T05:42:17.724Z,99.90
2018-09-10T05:44:46.620Z,99.90
2018-09-10T05:47:15.467Z,99.90
2018-09-10T05:49:44.026Z,99.90
2018-09-10T05:52:12.606Z,99.90
2018-09-10T05:54:41.166Z,99.90
2018-09-10T05:57:09.749Z,99.90
2018-09-10T05:59:38.347Z,99.90
2018-09-10T06:02:07.659Z,99.90
2018-09-10T06:07:35.225Z,99.90
2018-09-10T06:10:03.840Z,99.90
2018-09-10T06:12:32.750Z,99.90
2018-09-10T06:15:01.284Z,99.90
2018-09-10T06:17:29.878Z,99.90
2018-09-10T06:19:58.482Z,99.90
2018-09-10T06:22:27.017Z,99.90
2018-09-10T06:24:55.594Z,99.90
2018-09-10T06:27:24.195Z,99.90
2018-09-10T06:29:52.737Z,99.90
2018-09-10T06:32:21.335Z,99.90
2018-09-10T06:34:49.998Z,99.90
2018-09-10T06:37:19.513Z,99.90
2018-09-10T06:39:48.159Z,99.90
2018-09-10T06:42:17.787Z,99.90
2018-09-10T06:44:46.341Z,99.90
2018-09-10T06:47:14.873Z,99.90
2018-09-10T06:49:43.577Z,99.10
2018-09-10T06:52:12.844Z,98.30
2018-09-10T06:54:41.486Z,97.00
2018-09-10T06:57:10.422Z,96.50
2018-09-10T06:59:39.206Z,96.10
2018-09-10T07:02:07.755Z,94.80
2018-09-10T07:04:36.308Z,94.00
2018-09-10T07:07:07.175Z,91.30
2018-09-10T07:09:37.289Z,90.60
2018-09-10T07:12:06.020Z,84.10
2018-09-10T07:14:35.568Z,79.80
2018-09-10T07:17:04.219Z,73.30
2018-09-10T07:19:32.814Z,63.50
2018-09-10T07:22:01.360Z,54.10
2018-09-10T07:24:30.104Z,47.20
2018-09-10T07:26:58.670Z,41.30
2018-09-10T07:29:27.278Z,36.90
2018-09-10T07:31:55.850Z,33.00
2018-09-10T07:34:24.399Z,30.50
2018-09-10T07:36:52.962Z,29.20
2018-09-10T07:39:21.462Z,27.80
2018-09-10T07:41:50.026Z,28.30
2018-09-10T07:44:18.632Z,27.80
2018-09-10T07:46:47.205Z,26.90
2018-09-10T07:49:15.854Z,27.00
2018-09-10T07:51:44.646Z,26.70
2018-09-10T07:54:13.212Z,26.40
2018-09-10T07:56:41.831Z,25.10
2018-09-10T07:59:10.438Z,24.50
2018-09-10T08:01:39.009Z,23.90
2018-09-10T08:04:07.563Z,22.50
2018-09-10T08:06:36.106Z,22.20
2018-09-10T08:09:06.123Z,21.20
2018-09-10T08:11:34.673Z,21.10
2018-09-10T08:14:03.217Z,19.90
2018-09-10T08:16:31.857Z,20.30
2018-09-10T08:19:00.418Z,20.30
2018-09-10T08:21:29.200Z,20.60
2018-09-10T08:23:57.818Z,19.40
2018-09-10T08:26:26.461Z,19.50
2018-09-10T08:28:55.128Z,18.50
2018-09-10T08:31:23.653Z,18.40
2018-09-10T08:33:52.199Z,17.30
2018-09-10T08:36:20.744Z,17.10
2018-09-10T08:38:49.347Z,19.10
2018-09-10T08:41:18.062Z,17.80
2018-09-10T08:43:46.664Z,16.80
2018-09-10T08:46:15.421Z,17.60
2018-09-10T08:48:44.494Z,16.20
2018-09-10T08:51:13.049Z,17.10
2018-09-10T08:53:41.644Z,16.60
2018-09-10T08:56:10.496Z,17.20
2018-09-10T08:58:38.866Z,17.80
2018-09-10T09:01:07.500Z,17.10
2018-09-10T09:03:36.061Z,17.50
2018-09-10T09:06:04.685Z,17.90
2018-09-10T09:08:33.163Z,18.30
2018-09-10T09:11:02.051Z,17.90
2018-09-10T09:13:30.603Z,19.10
2018-09-10T09:15:59.127Z,20.10
2018-09-10T09:18:27.754Z,20.30
2018-09-10T09:20:56.314Z,19.30
2018-09-10T09:23:25.043Z,18.70
2018-09-10T09:25:53.634Z,16.80
2018-09-10T09:28:22.211Z,16.50
2018-09-10T09:30:50.821Z,15.30
2018-09-10T09:33:19.362Z,15.40
2018-09-10T09:35:53.120Z,13.90
2018-09-10T09:38:26.913Z,14.50
2018-09-10T09:41:00.852Z,14.20
2018-09-10T09:43:34.747Z,14.60
2018-09-10T09:46:06.096Z,13.30
2018-09-10T09:48:34.855Z,12.40
2018-09-10T09:51:10.123Z,13.40
2018-09-10T09:53:38.707Z,14.30
2018-09-10T09:56:07.323Z,14.50
2018-09-10T09:58:36.002Z,15.30
2018-09-10T10:01:09.894Z,16.80
2018-09-10T10:03:43.734Z,16.10
2018-09-10T10:06:12.260Z,15.40
2018-09-10T10:08:40.857Z,15.00
2018-09-10T10:11:09.545Z,14.90
2018-09-10T10:13:38.083Z,14.40
2018-09-10T10:16:06.659Z,14.70
2018-09-10T10:18:35.293Z,16.30
2018-09-10T10:21:03.907Z,16.70
2018-09-10T10:23:32.596Z,16.30
2018-09-10T10:26:01.077Z,14.60
2018-09-10T10:28:29.820Z,14.60
2018-09-10T10:30:58.558Z,15.60
2018-09-10T10:33:27.159Z,15.70
2018-09-10T10:35:55.893Z,17.30
2018-09-10T10:38:24.444Z,17.70
2018-09-10T10:40:53.399Z,17.50
2018-09-10T10:43:21.952Z,17.00
2018-09-10T10:45:50.800Z,17.20
2018-09-10T10:48:34.117Z,18.10
2018-09-10T10:51:03.182Z,17.20
2018-09-10T10:53:31.763Z,17.40
2018-09-10T10:56:00.424Z,15.60
2018-09-10T10:58:29.069Z,14.10
2018-09-10T11:00:57.718Z,13.70
2018-09-10T11:03:26.458Z,12.40
2018-09-10T11:05:56.090Z,12.00
2018-09-10T11:08:25.030Z,13.60
2018-09-10T11:10:54.082Z,13.90
2018-09-10T11:13:22.812Z,15.60
2018-09-10T11:15:51.598Z,15.80
2018-09-10T11:18:20.321Z,14.80
2018-09-10T11:20:50.012Z,15.90
2018-09-10T11:23:18.576Z,14.40
2018-09-10T11:25:47.292Z,14.40
2018-09-10T11:28:16.219Z,14.00
2018-09-10T11:30:44.922Z,13.30
2018-09-10T11:33:13.535Z,14.10
2018-09-10T11:35:42.165Z,14.00
2018-09-10T11:38:10.782Z,16.40
2018-09-10T11:40:39.354Z,16.60
2018-09-10T11:43:08.331Z,18.10
2018-09-10T11:45:37.261Z,18.00
2018-09-10T11:48:06.218Z,20.00
2018-09-10T11:50:35.483Z,19.10
2018-09-10T11:53:04.141Z,20.40
2018-09-10T11:55:33.764Z,20.40
2018-09-10T11:58:02.271Z,21.20
2018-09-10T12:00:31.474Z,20.80
2018-09-10T12:03:02.777Z,21.90
2018-09-10T12:05:33.454Z,22.90
2018-09-10T12:08:02.067Z,22.50
2018-09-10T12:10:30.673Z,22.80
2018-09-10T12:12:59.348Z,23.10
2018-09-10T12:15:27.983Z,24.20
2018-09-10T12:17:56.623Z,22.90
2018-09-10T12:20:25.198Z,23.80
2018-09-10T12:22:54.296Z,23.80
2018-09-10T12:25:25.145Z,24.30
2018-09-10T12:27:55.688Z,25.30
2018-09-10T12:30:24.555Z,24.60
2018-09-10T12:32:53.128Z,24.90
2018-09-10T12:35:21.675Z,26.00
2018-09-10T12:37:51.683Z,25.80
2018-09-10T12:40:23.159Z,26.50
2018-09-10T12:42:51.903Z,25.10
2018-09-10T12:45:20.682Z,24.80
2018-09-10T12:47:49.363Z,25.80
2018-09-10T12:50:18.170Z,26.10
2018-09-10T12:52:47.636Z,24.80
2018-09-10T12:55:16.288Z,25.30
2018-09-10T12:57:44.822Z,25.20
2018-09-10T13:00:14.811Z,25.20
2018-09-10T13:02:45.296Z,25.30
2018-09-10T13:05:14.144Z,25.40
2018-09-10T13:07:43.282Z,25.30
2018-09-10T13:10:11.773Z,25.70
2018-09-10T13:12:40.290Z,27.00
2018-09-10T13:15:08.854Z,24.80
2018-09-10T13:17:37.425Z,25.70
2018-09-10T13:20:06.553Z,24.60
2018-09-10T13:22:38.100Z,24.60
2018-09-10T13:25:08.551Z,24.90
2018-09-10T13:27:39.070Z,24.00
2018-09-10T13:30:07.712Z,24.10
2018-09-10T13:32:36.242Z,24.60
2018-09-10T13:35:04.887Z,23.40
2018-09-10T13:37:34.145Z,23.90
2018-09-10T13:40:03.028Z,23.30
2018-09-10T13:42:31.581Z,23.40
2018-09-10T13:45:00.115Z,24.10
2018-09-10T13:47:28.759Z,24.10
2018-09-10T13:49:57.370Z,25.00
2018-09-10T13:52:25.890Z,24.70
2018-09-10T13:54:55.036Z,24.80
2018-09-10T13:57:23.545Z,24.00
2018-09-10T13:59:52.049Z,24.20
2018-09-10T14:02:20.681Z,24.80
2018-09-10T14:04:49.217Z,25.40
2018-09-10T14:07:17.973Z,24.90
2018-09-10T14:09:46.586Z,24.90
2018-09-10T14:12:15.496Z,25.40
2018-09-10T14:14:44.071Z,25.80
2018-09-10T14:17:12.974Z,26.80
2018-09-10T14:19:41.652Z,25.10
2018-09-10T14:22:10.935Z,26.70
2018-09-10T14:24:40.519Z,25.20
2018-09-10T14:27:09.727Z,26.30
2018-09-10T14:29:39.771Z,25.80
2018-09-10T14:32:08.471Z,25.80
2018-09-10T14:34:37.370Z,26.60
2018-09-10T14:37:06.910Z,27.00
2018-09-10T14:39:36.111Z,26.60
2018-09-10T14:42:04.970Z,26.50
2018-09-10T14:44:33.588Z,26.50
2018-09-10T14:47:02.110Z,26.20
2018-09-10T14:49:30.670Z,26.50
2018-09-10T14:51:59.313Z,26.70
2018-09-10T14:54:27.869Z,27.10
2018-09-10T14:56:56.415Z,27.30
2018-09-10T14:59:24.993Z,27.30
2018-09-10T15:01:53.800Z,27.70
2018-09-10T15:04:22.431Z,28.00
2018-09-10T15:06:52.179Z,28.10
2018-09-10T15:09:20.827Z,28.50
2018-09-10T15:11:49.461Z,27.60
2018-09-10T15:14:18.667Z,28.50
2018-09-10T15:16:47.324Z,28.20
2018-09-10T15:19:16.722Z,28.60
2018-09-10T15:21:45.280Z,28.40
2018-09-10T15:24:13.944Z,29.10
2018-09-10T15:26:43.406Z,27.40
2018-09-10T15:29:12.006Z,28.40
2018-09-10T15:31:40.692Z,27.10
2018-09-10T15:34:09.360Z,27.40
2018-09-10T15:36:37.954Z,27.70
2018-09-10T15:39:07.642Z,27.60
2018-09-10T15:41:36.305Z,27.30
2018-09-10T15:44:05.941Z,27.20
2018-09-10T15:46:34.761Z,27.60
2018-09-10T15:49:04.564Z,27.60
2018-09-10T15:51:33.651Z,28.00
2018-09-10T15:54:02.289Z,27.60
2018-09-10T15:56:32.041Z,27.30
2018-09-10T15:59:00.926Z,27.40
2018-09-10T16:01:29.537Z,28.30
2018-09-10T16:03:58.245Z,28.90
2018-09-10T16:06:28.136Z,28.40
2018-09-10T16:08:58.128Z,28.90
2018-09-10T16:11:27.537Z,28.70
2018-09-10T16:13:56.163Z,28.10
2018-09-10T16:16:25.013Z,28.70
2018-09-10T16:18:53.753Z,29.20
2018-09-10T16:21:25.017Z,29.40
2018-09-10T16:23:55.042Z,29.70
2018-09-10T16:26:23.727Z,29.90
2018-09-10T16:28:52.359Z,30.50
2018-09-10T16:31:20.976Z,30.00
2018-09-10T16:33:49.646Z,30.50
2018-09-10T16:36:18.392Z,31.20
2018-09-10T16:38:47.920Z,30.10
2018-09-10T16:41:16.595Z,30.00
2018-09-10T16:43:45.212Z,30.80
2018-09-10T16:46:14.532Z,30.80
2018-09-10T16:48:43.171Z,31.20
2018-09-10T16:51:11.804Z,31.30
2018-09-10T16:53:40.381Z,32.80
2018-09-10T16:56:09.560Z,33.40
2018-09-10T16:58:38.747Z,34.70
2018-09-10T17:01:07.780Z,35.80
2018-09-10T17:03:36.964Z,37.40
2018-09-10T17:06:05.588Z,38.20
2018-09-10T17:08:35.820Z,39.00
2018-09-10T17:11:05.395Z,39.10
2018-09-10T17:13:34.027Z,39.60
2018-09-10T17:16:02.727Z,40.00
2018-09-10T17:18:31.530Z,41.80
2018-09-10T17:21:00.226Z,43.10
2018-09-10T17:23:28.852Z,45.00
2018-09-10T17:25:57.572Z,46.00
2018-09-10T17:28:26.742Z,47.50
2018-09-10T17:30:55.337Z,48.10
2018-09-10T17:33:23.901Z,49.20
2018-09-10T17:35:52.526Z,48.80
2018-09-10T17:38:21.096Z,49.30
2018-09-10T17:40:49.692Z,48.00
2018-09-10T17:43:19.107Z,47.40
2018-09-10T17:45:49.419Z,48.90
2018-09-10T17:48:20.647Z,48.70
2018-09-10T17:50:49.196Z,48.60
2018-09-10T17:53:17.835Z,48.00
2018-09-10T17:55:46.445Z,48.00
2018-09-10T17:58:14.969Z,48.10
2018-09-10T18:00:46.241Z,48.10
2018-09-10T18:03:15.645Z,48.50
2018-09-10T18:05:45.078Z,48.90
2018-09-10T18:08:14.966Z,49.30
2018-09-10T18:10:44.296Z,49.10
2018-09-10T18:13:12.925Z,49.80
2018-09-10T18:15:42.042Z,48.70
2018-09-10T18:18:11.143Z,48.80
2018-09-10T18:20:39.934Z,49.60
2018-09-10T18:23:09.375Z,50.00
2018-09-10T18:25:37.937Z,50.10
2018-09-10T18:28:06.462Z,50.30
2018-09-10T18:30:35.945Z,51.00
2018-09-10T18:33:04.581Z,51.10
2018-09-10T18:35:33.826Z,53.20
2018-09-10T18:38:02.346Z,53.50
2018-09-10T18:40:30.932Z,52.50
2018-09-10T18:42:59.543Z,52.30
2018-09-10T18:45:28.995Z,52.10
2018-09-10T18:48:00.484Z,51.70
2018-09-10T18:50:29.664Z,52.90
2018-09-10T18:52:59.510Z,53.30
2018-09-10T18:55:28.247Z,53.00
2018-09-10T18:57:56.998Z,53.00
2018-09-10T19:00:26.861Z,52.60
2018-09-10T19:02:55.795Z,52.70
2018-09-10T19:05:25.362Z,53.20
2018-09-10T19:07:58.394Z,53.80
2018-09-10T19:10:27.034Z,54.10
2018-09-10T19:12:55.577Z,54.80
2018-09-10T19:15:24.107Z,54.60
2018-09-10T19:17:52.721Z,54.90
2018-09-10T19:20:21.278Z,54.20
2018-09-10T19:22:50.409Z,54.40
2018-09-10T19:25:18.937Z,54.80
2018-09-10T19:27:47.557Z,56.50
2018-09-10T19:30:16.104Z,57.10
2018-09-10T19:32:44.897Z,57.20
2018-09-10T19:35:14.159Z,58.10
2018-09-10T19:37:42.710Z,58.40
2018-09-10T19:40:14.478Z,57.70
2018-09-10T19:42:43.574Z,57.50
2018-09-10T19:45:12.192Z,56.80
2018-09-10T19:47:41.873Z,57.00
2018-09-10T19:50:10.427Z,57.00
2018-09-10T19:52:39.320Z,57.40
2018-09-10T19:55:07.933Z,58.20
2018-09-10T19:57:37.944Z,58.30
2018-09-10T20:00:07.672Z,58.80
2018-09-10T20:02:36.237Z,58.90
2018-09-10T20:05:04.846Z,59.30
2018-09-10T20:07:33.732Z,59.00
2018-09-10T20:10:02.303Z,59.10
2018-09-10T20:12:31.044Z,59.50
2018-09-10T20:14:59.708Z,60.70
2018-09-10T20:17:28.267Z,61.00
2018-09-10T20:19:57.051Z,61.30
2018-09-10T20:22:25.574Z,61.60
2018-09-10T20:24:54.066Z,61.90
2018-09-10T20:27:22.908Z,62.00
2018-09-10T20:29:51.442Z,62.00
2018-09-10T20:32:20.125Z,61.70
2018-09-10T20:34:48.712Z,61.80
2018-09-10T20:37:17.234Z,62.50
2018-09-10T20:39:45.865Z,62.00
2018-09-10T20:42:14.430Z,62.40
2018-09-10T20:44:42.936Z,62.50
2018-09-10T20:47:11.491Z,62.80
2018-09-10T20:49:40.057Z,63.60
2018-09-10T20:52:08.956Z,63.20
2018-09-10T20:54:37.395Z,63.60
2018-09-10T20:57:06.037Z,64.60
2018-09-10T20:59:34.695Z,64.50
2018-09-10T21:02:05.104Z,65.00
2018-09-10T21:04:33.691Z,65.10
2018-09-10T21:07:02.201Z,65.90
2018-09-10T21:09:30.756Z,65.40
2018-09-10T21:11:59.356Z,65.40
2018-09-10T21:14:27.914Z,65.80
2018-09-10T21:16:57.159Z,66.90
2018-09-10T21:19:25.643Z,66.90
2018-09-10T21:24:53.137Z,68.20
2018-09-10T21:27:26.683Z,68.80
2018-09-10T21:29:55.322Z,68.80
2018-09-10T21:32:24.912Z,69.50
2018-09-10T21:34:53.462Z,70.20
2018-09-10T21:37:22.182Z,70.00
2018-09-10T21:39:51.662Z,70.40
2018-09-10T21:42:21.603Z,70.80
2018-09-10T21:44:51.701Z,71.60
2018-09-10T21:47:20.509Z,71.40
2018-09-10T21:49:49.688Z,72.80
2018-09-10T21:52:18.765Z,72.80
2018-09-10T21:54:47.337Z,73.50
2018-09-10T21:57:16.604Z,73.90
2018-09-10T21:59:45.127Z,73.90
2018-09-10T22:02:13.721Z,74.00
2018-09-10T22:04:42.229Z,75.00
2018-09-10T22:07:10.792Z,74.80
2018-09-10T22:09:41.470Z,75.30
2018-09-10T22:12:10.093Z,74.70
2018-09-10T22:14:38.650Z,75.30
2018-09-10T22:17:08.415Z,75.80
2018-09-10T22:19:36.970Z,76.40
2018-09-10T22:22:05.629Z,76.80
2018-09-10T22:24:34.245Z,76.70
2018-09-10T22:27:03.438Z,76.70
2018-09-10T22:29:31.967Z,77.60
2018-09-10T22:32:02.311Z,76.90
2018-09-10T22:34:31.080Z,77.70
2018-09-10T22:37:00.626Z,78.30
2018-09-10T22:39:31.198Z,78.20
2018-09-10T22:42:00.538Z,78.60
2018-09-10T22:44:29.234Z,78.80
2018-09-10T22:46:58.153Z,79.00
2018-09-10T22:49:26.845Z,79.40
2018-09-10T22:51:55.437Z,80.40
2018-09-10T22:54:24.989Z,80.50
2018-09-10T22:56:53.522Z,81.90
2018-09-10T22:59:22.050Z,82.80
2018-09-10T23:01:50.579Z,83.20
2018-09-10T23:04:19.101Z,82.50
2018-09-10T23:06:48.327Z,81.90
2018-09-10T23:09:16.821Z,82.70
2018-09-10T23:11:45.366Z,82.70
2018-09-10T23:14:13.889Z,83.90
2018-09-10T23:16:43.231Z,83.90
2018-09-10T23:19:12.158Z,84.70
2018-09-10T23:21:45.516Z,85.30
2018-09-10T23:24:14.231Z,85.50
2018-09-10T23:26:42.784Z,84.70
2018-09-10T23:29:11.306Z,84.20
2018-09-10T23:31:39.850Z,84.90
2018-09-10T23:34:09.408Z,84.90
2018-09-10T23:36:37.923Z,85.30
2018-09-10T23:39:08.425Z,85.80
2018-09-10T23:41:37.095Z,86.30
2018-09-10T23:44:05.891Z,86.80
2018-09-10T23:46:34.449Z,88.40
2018-09-10T23:49:03.317Z,88.30
2018-09-10T23:51:31.954Z,88.20
2018-09-10T23:54:01.117Z,88.90
2018-09-10T23:56:31.478Z,90.70
2018-09-10T23:59:00.036Z,90.60
